Time;durP1;ratioP1;P1;durP2;ratioP2;P2;SDS_P1;SDS_P2;PMS_P1;PMS_P2;Temp;Humidity;BMP_temperature;BMP_pressure;BME280_temperature;BME280_humidity;BME280_pressure;Samples;Min_cycle;Max_cycle;Signal;HPM_P1;HPM_P2
2022/09/21 00:00:15;;;;;;;4.10;2.47;;;;;;;16.50;52.08;99346.28;4898022;29;20396;-64
2022/09/21 00:02:40;;;;;;;6.55;2.47;;;;;;;16.50;51.98;99343.59;4897934;29;20048;-63
2022/09/21 00:05:06;;;;;;;4.22;2.80;;;;;;;16.47;51.86;99334.09;4897710;29;20408;-64
2022/09/21 00:07:31;;;;;;;6.45;2.40;;;;;;;16.46;51.77;99340.44;4897865;29;20072;-65
2022/09/21 00:09:57;;;;;;;3.03;2.22;;;;;;;16.44;51.80;99339.75;4897420;29;20100;-67
2022/09/21 00:12:23;;;;;;;5.57;2.63;;;;;;;16.42;51.94;99343.59;4896893;29;20063;-67
2022/09/21 00:14:49;;;;;;;4.03;2.53;;;;;;;16.42;51.77;99343.59;4897469;29;20066;-67
2022/09/21 00:17:14;;;;;;;6.65;2.67;;;;;;;16.41;51.74;99341.94;4897113;29;20036;-64
2022/09/21 00:19:40;;;;;;;6.10;3.40;;;;;;;16.41;51.74;99339.25;4896399;29;20040;-65
2022/09/21 00:22:06;;;;;;;4.85;2.85;;;;;;;16.40;51.70;99338.41;4900319;29;20095;-65
2022/09/21 00:24:33;;;;;;;4.85;2.40;;;;;;;16.39;51.83;99335.91;4900400;29;20048;-65
2022/09/21 00:26:59;;;;;;;11.02;2.63;;;;;;;16.35;51.71;99335.41;4901542;29;20040;-67
2022/09/21 00:29:24;;;;;;;5.07;3.42;;;;;;;16.35;51.56;99345.25;4903424;29;20412;-67
2022/09/21 00:31:50;;;;;;;4.47;2.50;;;;;;;16.35;51.72;99343.41;4900747;29;20036;-65
2022/09/21 00:34:15;;;;;;;5.70;3.03;;;;;;;16.35;51.87;99340.75;4900068;29;20040;-65
2022/09/21 00:36:41;;;;;;;4.82;2.78;;;;;;;16.35;51.52;99345.25;4873355;29;20047;-66
2022/09/21 00:39:08;;;;;;;5.47;2.70;;;;;;;16.35;51.46;99340.75;4900225;29;20045;-66
2022/09/21 00:41:34;;;;;;;6.70;2.90;;;;;;;16.31;51.43;99340.25;4900163;29;20407;-68
2022/09/21 00:44:20;;;;;;;7.95;7.25;;;;;;;16.34;51.56;99355.09;4900369;29;20036;-68
2022/09/21 00:46:49;;;;;;;6.47;3.53;;;;;;;16.31;51.82;99355.41;4894463;29;20052;-66
2022/09/21 00:49:16;;;;;;;7.22;3.63;;;;;;;16.30;51.71;99349.25;4900233;29;20044;-66
2022/09/21 00:51:43;;;;;;;4.82;3.60;;;;;;;16.29;51.75;99344.91;4900792;29;20032;-66
2022/09/21 00:54:14;;;;;;;6.15;3.33;;;;;;;16.29;51.67;99349.41;4900520;29;20047;-66
2022/09/21 00:56:41;;;;;;;4.35;2.90;;;;;;;16.27;51.61;99348.72;4900519;29;20038;-67
2022/09/21 00:59:08;;;;;;;5.22;3.10;;;;;;;16.28;51.70;99351.25;4900161;29;20399;-66
2022/09/21 01:01:35;;;;;;;11.02;2.83;;;;;;;16.31;52.28;99340.25;4900256;29;20032;-70
2022/09/21 01:04:01;;;;;;;4.85;2.67;;;;;;;16.59;51.81;99331.94;4891967;29;20033;-68
2022/09/21 01:06:27;;;;;;;6.82;2.17;;;;;;;16.86;51.52;99337.97;4882075;29;20048;-69
2022/09/21 01:08:57;;;;;;;3.70;2.45;;;;;;;17.10;51.21;99335.50;4899343;29;20037;-71
2022/09/21 01:11:36;;;;;;;4.40;2.22;;;;;;;17.29;50.93;99335.13;4899084;29;20036;-66
2022/09/21 01:14:02;;;;;;;4.25;2.58;;;;;;;17.44;50.50;99337.09;4907441;29;20064;-68
2022/09/21 01:16:45;;;;;;;3.53;2.47;;;;;;;17.54;50.38;99335.09;4895162;29;20041;-69
2022/09/21 01:19:38;;;;;;;3.67;2.55;;;;;;;17.61;50.10;99328.03;4894596;29;20044;-69
2022/09/21 01:22:27;;;;;;;3.97;2.33;;;;;;;17.66;49.95;99336.41;4896037;29;20408;-70
2022/09/21 01:25:05;;;;;;;3.78;2.38;;;;;;;17.69;49.60;99325.34;4899012;29;20047;-68
2022/09/21 01:28:05;;;;;;;3.90;2.42;;;;;;;17.75;49.63;99331.00;4899517;29;20045;-68
2022/09/21 01:30:34;;;;;;;7.50;2.90;;;;;;;17.77;49.56;99327.16;4894928;29;20040;-66
2022/09/21 01:33:09;;;;;;;3.20;2.17;;;;;;;17.81;49.50;99330.31;4898893;29;20043;-69
2022/09/21 01:35:47;;;;;;;2.55;1.70;;;;;;;17.83;49.43;99331.00;4899161;29;20557;-68
2022/09/21 01:38:23;;;;;;;3.92;2.20;;;;;;;17.84;49.33;99332.66;4898855;29;20048;-70
2022/09/21 01:40:57;;;;;;;6.53;2.55;;;;;;;17.89;49.14;99334.81;4885044;29;20051;-69
2022/09/21 01:43:34;;;;;;;4.45;1.83;;;;;;;17.88;49.03;99333.97;4899004;29;20117;-68
2022/09/21 01:46:02;;;;;;;2.63;1.98;;;;;;;17.90;49.23;99339.16;4899480;29;20049;-70
2022/09/21 01:48:34;;;;;;;3.92;2.25;;;;;;;17.91;48.95;99333.63;4899711;29;20460;-69
2022/09/21 01:51:02;;;;;;;6.15;2.53;;;;;;;17.92;48.95;99331.78;4899913;29;20040;-68
2022/09/21 01:53:37;;;;;;;5.70;2.17;;;;;;;17.95;48.88;99342.97;4899941;29;20044;-69
2022/09/21 01:56:29;;;;;;;7.63;2.15;;;;;;;17.97;48.85;99345.47;4899544;29;20045;-68
2022/09/21 01:59:08;;;;;;;3.75;2.35;;;;;;;17.99;48.76;99338.13;4891318;29;20049;-68
2022/09/21 02:01:49;;;;;;;3.88;2.40;;;;;;;18.02;48.81;99340.47;4899562;29;20044;-69
2022/09/21 02:04:14;;;;;;;3.20;2.17;;;;;;;18.04;48.62;99341.13;4899365;29;20598;-70
2022/09/21 02:06:43;;;;;;;3.95;2.17;;;;;;;18.07;48.60;99343.47;4899378;29;20123;-69
2022/09/21 02:09:10;;;;;;;3.65;2.40;;;;;;;18.09;48.62;99344.09;4899367;29;20084;-70
2022/09/21 02:11:37;;;;;;;3.58;2.30;;;;;;;18.12;48.62;99346.44;4899462;29;20032;-68
2022/09/21 02:14:07;;;;;;;4.00;2.35;;;;;;;18.15;48.49;99347.94;4898764;29;20143;-69
2022/09/21 02:17:01;;;;;;;3.80;2.42;;;;;;;18.18;48.58;99341.41;4899396;29;20037;-69
2022/09/21 02:20:04;;;;;;;3.80;2.60;;;;;;;18.17;48.28;99353.13;4897635;29;20040;-68
2022/09/21 02:23:03;;;;;;;3.35;2.45;;;;;;;18.15;48.38;99356.00;4886637;29;20099;-68
2022/09/21 02:25:34;;;;;;;4.90;2.42;;;;;;;18.17;48.30;99359.28;4898291;29;20040;-69
2022/09/21 02:28:20;;;;;;;3.72;2.38;;;;;;;18.16;48.40;99354.94;4898470;29;20025;-68
2022/09/21 02:30:55;;;;;;;3.90;2.28;;;;;;;18.17;48.48;99353.13;4897783;29;20044;-67
2022/09/21 02:33:31;;;;;;;5.65;2.58;;;;;;;18.19;48.21;99354.59;4898315;29;20046;-69
2022/09/21 02:36:11;;;;;;;3.97;2.25;;;;;;;18.19;48.32;99364.50;4898323;29;20070;-67
2022/09/21 02:38:52;;;;;;;4.38;2.67;;;;;;;18.21;48.29;99367.84;4897790;29;20504;-67
2022/09/21 02:41:39;;;;;;;5.00;2.50;;;;;;;18.20;48.44;99363.50;4898292;29;20773;-69
2022/09/21 02:44:19;;;;;;;3.40;2.08;;;;;;;18.20;48.09;99361.63;4897629;29;20119;-70
2022/09/21 02:46:55;;;;;;;5.18;2.70;;;;;;;18.20;48.17;99361.63;4898059;29;20037;-68
2022/09/21 02:49:30;;;;;;;3.38;2.53;;;;;;;18.21;48.25;99363.31;4898277;29;20074;-70
2022/09/21 02:52:01;;;;;;;6.45;2.65;;;;;;;18.23;48.19;99361.28;4898251;29;20488;-69
2022/09/21 02:54:31;;;;;;;4.65;2.88;;;;;;;18.23;48.15;99355.94;4898372;29;20124;-68
2022/09/21 02:56:58;;;;;;;4.20;2.63;;;;;;;18.26;48.15;99354.75;4898847;29;20044;-68
2022/09/21 02:59:24;;;;;;;3.88;2.50;;;;;;;18.27;48.20;99356.41;4898146;29;20047;-66
2022/09/21 03:01:51;;;;;;;5.00;3.00;;;;;;;18.29;48.22;99355.25;4898607;29;20404;-68
2022/09/21 03:04:16;;;;;;;3.75;2.63;;;;;;;18.30;48.23;99348.03;4898375;29;20139;-69
2022/09/21 03:06:42;;;;;;;2.85;2.53;;;;;;;18.30;48.22;99353.38;4898033;29;20131;-69
2022/09/21 03:09:08;;;;;;;3.45;2.20;;;;;;;18.29;48.33;99341.84;4898159;29;20036;-69
2022/09/21 03:11:37;;;;;;;3.92;2.58;;;;;;;18.33;48.07;99354.88;4898191;29;20407;-68
2022/09/21 03:14:07;;;;;;;6.75;2.60;;;;;;;18.34;48.17;99346.69;4897906;29;20099;-66
2022/09/21 03:16:36;;;;;;;5.15;2.63;;;;;;;18.34;48.23;99345.81;4897901;29;20040;-70
2022/09/21 03:19:01;;;;;;;5.32;2.90;;;;;;;18.35;48.20;99350.19;4897296;29;20044;-68
2022/09/21 03:21:27;;;;;;;5.00;2.55;;;;;;;18.39;48.24;99346.13;4898482;29;20036;-69
2022/09/21 03:23:53;;;;;;;5.38;2.83;;;;;;;18.40;48.13;99355.84;4897116;29;20082;-67
2022/09/21 03:26:21;;;;;;;5.07;2.80;;;;;;;18.40;48.11;99345.94;4897721;29;20556;-67
2022/09/21 03:28:49;;;;;;;4.13;3.00;;;;;;;18.41;48.17;99358.34;4897204;29;20543;-68
2022/09/21 03:31:16;;;;;;;2.83;2.30;;;;;;;18.43;48.15;99350.16;4897035;29;20044;-67
2022/09/21 03:33:41;;;;;;;4.93;2.53;;;;;;;18.45;48.17;99353.47;4897170;29;20044;-67
2022/09/21 03:36:07;;;;;;;5.13;2.65;;;;;;;18.45;48.07;99345.44;4897235;29;20043;-69
2022/09/21 03:38:33;;;;;;;3.35;2.60;;;;;;;18.45;48.19;99348.94;4896873;29;20044;-68
2022/09/21 03:40:59;;;;;;;6.28;3.10;;;;;;;18.48;47.88;99346.94;4897564;29;20036;-68
2022/09/21 03:43:25;;;;;;;6.18;3.05;;;;;;;18.52;48.12;99343.72;4897651;29;20040;-69
2022/09/21 03:45:51;;;;;;;6.65;2.60;;;;;;;18.54;47.88;99336.34;4897494;29;20064;-70
2022/09/21 03:48:17;;;;;;;3.63;2.45;;;;;;;18.57;47.98;99346.69;4896786;29;20118;-70
2022/09/21 03:50:42;;;;;;;5.15;2.50;;;;;;;18.56;47.88;99341.50;4897324;29;20522;-69
2022/09/21 03:53:09;;;;;;;3.75;2.50;;;;;;;18.59;47.94;99342.00;4897117;29;20047;-68
2022/09/21 03:55:34;;;;;;;5.75;2.92;;;;;;;18.62;47.92;99343.47;4897468;29;20459;-69
2022/09/21 03:58:01;;;;;;;5.65;3.22;;;;;;;18.63;47.98;99346.97;4897192;29;20045;-69
2022/09/21 04:00:27;;;;;;;4.55;2.85;;;;;;;18.65;47.92;99335.09;4897423;29;20408;-67
2022/09/21 04:02:53;;;;;;;6.20;3.42;;;;;;;18.69;48.06;99341.75;4897613;29;20096;-67
2022/09/21 04:05:19;;;;;;;5.45;2.72;;;;;;;18.69;47.90;99349.78;4897268;29;20508;-68
2022/09/21 04:07:45;;;;;;;7.68;2.97;;;;;;;18.70;48.01;99347.94;4897227;29;20107;-66
2022/09/21 04:10:13;;;;;;;14.90;3.20;;;;;;;18.74;48.03;99344.72;4897667;29;20412;-68
2022/09/21 04:12:43;;;;;;;8.85;3.53;;;;;;;18.77;48.21;99354.25;4897408;29;20060;-70
2022/09/21 04:15:12;;;;;;;5.40;3.13;;;;;;;18.82;47.97;99345.69;4896865;29;20127;-69
2022/09/21 04:17:37;;;;;;;4.47;3.08;;;;;;;18.84;47.90;99347.19;4896769;29;20412;-69
2022/09/21 04:20:04;;;;;;;5.45;3.60;;;;;;;18.87;47.71;99341.47;4897281;29;20029;-70
2022/09/21 04:22:30;;;;;;;6.25;3.13;;;;;;;18.89;47.59;99338.59;4897970;29;20040;-68
2022/09/21 04:24:55;;;;;;;7.78;3.58;;;;;;;18.93;47.51;99337.22;4897223;29;20097;-68
2022/09/21 04:27:21;;;;;;;6.45;3.85;;;;;;;18.93;47.76;99339.91;4897034;29;20036;-70
2022/09/21 04:29:47;;;;;;;5.93;3.42;;;;;;;18.93;47.69;99337.22;4896753;29;20055;-68
2022/09/21 04:32:13;;;;;;;6.10;3.80;;;;;;;18.92;47.78;99338.25;4897738;29;20051;-67
2022/09/21 04:34:38;;;;;;;6.28;3.97;;;;;;;18.92;47.79;99338.25;4897427;29;20131;-67
2022/09/21 04:37:07;;;;;;;4.95;3.85;;;;;;;18.96;47.81;99344.94;4897141;29;20096;-68
2022/09/21 04:39:33;;;;;;;5.18;3.38;;;;;;;18.99;47.80;99354.47;4896605;29;20052;-68
2022/09/21 04:41:58;;;;;;;8.05;3.30;;;;;;;18.99;47.93;99352.59;4897013;29;20063;-70
2022/09/21 04:44:24;;;;;;;4.97;3.13;;;;;;;19.00;48.11;99348.09;4896755;29;20546;-70
2022/09/21 04:46:49;;;;;;;6.03;3.50;;;;;;;19.01;48.11;99358.63;4896764;29;20041;-69
2022/09/21 04:49:15;;;;;;;5.60;3.30;;;;;;;19.02;48.00;99356.78;4895828;29;20032;-69
2022/09/21 04:51:41;;;;;;;7.90;4.03;;;;;;;19.04;48.11;99360.94;4897218;29;20088;-67
2022/09/21 04:54:06;;;;;;;10.90;3.80;;;;;;;19.07;48.04;99351.69;4896806;29;20123;-68
2022/09/21 04:56:32;;;;;;;13.45;3.90;;;;;;;19.10;48.06;99361.25;4896936;29;20051;-70
2022/09/21 04:58:58;;;;;;;5.88;3.78;;;;;;;19.12;48.20;99367.25;4896592;29;20037;-68
2022/09/21 05:01:23;;;;;;;6.70;4.70;;;;;;;19.12;48.27;99359.19;4897104;29;20412;-66
2022/09/21 05:03:49;;;;;;;8.68;4.05;;;;;;;19.16;48.36;99363.19;4896987;29;20036;-68
2022/09/21 05:06:14;;;;;;;7.38;4.00;;;;;;;19.21;48.23;99367.00;4896740;29;20033;-67
2022/09/21 05:11:24;;;;;;;7.25;3.90;;;;;;;19.28;47.95;99358.22;4900992;29;20100;-70
2022/09/21 05:13:51;;;;;;;8.73;4.15;;;;;;;19.29;47.97;99371.44;4899061;29;20060;-68
2022/09/21 05:16:17;;;;;;;6.50;4.10;;;;;;;19.28;48.04;99361.75;4899881;29;20048;-69
2022/09/21 05:18:43;;;;;;;5.88;3.45;;;;;;;19.28;47.98;99360.91;4899862;29;20040;-68
2022/09/21 05:21:11;;;;;;;8.68;3.45;;;;;;;19.28;47.88;99363.59;4899939;29;20515;-71
2022/09/21 05:23:36;;;;;;;5.40;3.28;;;;;;;19.28;47.89;99369.78;4899829;29;20036;-69
2022/09/21 05:26:02;;;;;;;7.53;3.83;;;;;;;19.32;47.75;99364.91;4899757;29;20099;-71
2022/09/21 05:28:27;;;;;;;7.55;4.18;;;;;;;19.36;47.63;99369.72;4899717;29;20499;-69
2022/09/21 05:30:57;;;;;;;7.43;4.30;;;;;;;19.40;47.71;99366.69;4899956;29;20037;-70
2022/09/21 05:33:27;;;;;;;9.15;4.15;;;;;;;19.42;47.63;99370.00;4899912;29;20051;-70
2022/09/21 05:36:09;;;;;;;6.13;3.90;;;;;;;19.43;47.48;99367.16;4900039;29;20059;-70
2022/09/21 05:38:35;;;;;;;8.10;3.95;;;;;;;19.45;47.50;99365.13;4899381;29;20039;-71
2022/09/21 05:41:01;;;;;;;11.35;4.15;;;;;;;19.50;47.25;99368.06;4899820;29;20033;-70
2022/09/21 05:43:27;;;;;;;8.15;3.90;;;;;;;19.55;47.39;99364.00;4899725;29;20041;-68
2022/09/21 05:46:01;;;;;;;8.27;4.57;;;;;;;19.60;47.23;99356.25;4899685;29;20119;-68
2022/09/21 05:48:40;;;;;;;7.15;3.45;;;;;;;19.64;47.12;99360.22;4899529;29;20028;-69
2022/09/21 05:51:39;;;;;;;6.15;3.70;;;;;;;19.65;47.20;99354.66;4899661;29;20377;-67
2022/09/21 05:54:19;;;;;;;6.50;4.10;;;;;;;19.66;47.11;99356.34;4899392;29;20109;-70
2022/09/21 05:57:08;;;;;;;5.85;3.88;;;;;;;19.68;46.89;99358.81;4898755;29;20048;-69
2022/09/21 05:59:36;;;;;;;7.43;3.85;;;;;;;19.68;46.97;99356.16;4896986;29;20048;-69
2022/09/21 06:02:40;;;;;;;6.25;3.70;;;;;;;19.72;46.92;99364.66;4898267;29;20056;-70
2022/09/21 06:05:13;;;;;;;6.38;3.50;;;;;;;19.72;46.72;99362.81;4888562;29;20055;-71
2022/09/21 06:07:40;;;;;;;7.07;4.60;;;;;;;19.76;46.90;99357.91;4899129;29;20115;-68
2022/09/21 06:10:07;;;;;;;6.32;3.90;;;;;;;19.77;46.70;99368.47;4898385;29;20141;-71
2022/09/21 06:12:33;;;;;;;10.13;4.07;;;;;;;19.79;46.96;99361.03;4898853;29;20119;-71
2022/09/21 06:14:58;;;;;;;7.18;3.70;;;;;;;19.83;46.69;99367.72;4882098;29;20535;-70
2022/09/21 06:17:26;;;;;;;9.50;3.90;;;;;;;19.87;46.83;99362.00;4898941;29;20032;-68
2022/09/21 06:19:52;;;;;;;7.43;4.70;;;;;;;19.87;46.60;99356.66;4899011;29;20389;-70
2022/09/21 06:22:18;;;;;;;5.55;3.33;;;;;;;19.88;46.99;99358.31;4899134;29;20041;-71
2022/09/21 06:24:43;;;;;;;7.63;3.53;;;;;;;19.90;46.71;99358.97;4898886;29;20044;-68
2022/09/21 06:27:09;;;;;;;7.88;4.25;;;;;;;19.91;46.55;99356.06;4899130;29;20044;-71
2022/09/21 06:29:34;;;;;;;10.70;3.78;;;;;;;19.92;46.55;99354.25;4898718;29;20036;-71
2022/09/21 06:32:01;;;;;;;6.13;3.88;;;;;;;19.92;46.38;99364.97;4899135;29;20087;-70
2022/09/21 06:34:27;;;;;;;6.85;3.83;;;;;;;19.92;46.34;99357.75;4899121;29;20041;-70
2022/09/21 06:36:52;;;;;;;6.35;3.10;;;;;;;19.92;46.64;99367.66;4898710;29;20127;-71
2022/09/21 06:39:18;;;;;;;7.78;3.10;;;;;;;19.93;46.30;99362.09;4898609;29;20037;-71
2022/09/21 06:41:43;;;;;;;7.32;3.30;;;;;;;19.97;46.45;99374.16;4898604;29;20075;-69
2022/09/21 06:44:09;;;;;;;7.90;2.97;;;;;;;19.98;46.32;99361.53;4898714;29;20036;-70
2022/09/21 06:46:34;;;;;;;4.88;3.22;;;;;;;19.99;46.40;99370.44;4898584;29;20414;-71
2022/09/21 06:49:00;;;;;;;5.22;3.50;;;;;;;20.01;46.30;99371.06;4898535;29;20365;-70
2022/09/21 06:51:25;;;;;;;6.38;3.72;;;;;;;20.05;46.29;99367.00;4898248;29;20032;-70
2022/09/21 06:53:55;;;;;;;4.07;2.88;;;;;;;20.07;46.39;99365.78;4898508;29;20028;-70
2022/09/21 06:56:21;;;;;;;6.75;3.35;;;;;;;20.09;46.17;99369.13;4899997;29;20456;-70
2022/09/21 06:58:46;;;;;;;6.40;3.42;;;;;;;20.11;46.15;99364.38;4898387;29;20123;-71
2022/09/21 07:01:13;;;;;;;6.07;3.47;;;;;;;20.12;46.18;99370.63;4898649;29;20511;-71
2022/09/21 07:03:40;;;;;;;6.05;3.28;;;;;;;20.16;46.07;99371.06;4898444;29;20448;-71
2022/09/21 07:06:07;;;;;;;4.43;2.70;;;;;;;20.20;46.14;99372.34;4896977;29;20590;-70
2022/09/21 07:08:34;;;;;;;5.55;3.50;;;;;;;20.22;45.97;99367.63;4898195;29;20040;-70
2022/09/21 07:11:01;;;;;;;5.28;3.30;;;;;;;20.26;46.23;99371.59;4898427;29;20037;-69
2022/09/21 07:13:27;;;;;;;6.25;3.50;;;;;;;20.27;46.07;99378.63;4898182;29;20099;-69
2022/09/21 07:15:53;;;;;;;7.40;3.67;;;;;;;20.25;45.94;99368.09;4898380;29;20032;-71
2022/09/21 07:18:20;;;;;;;7.40;3.90;;;;;;;20.26;46.16;99366.22;4898096;29;20040;-69
2022/09/21 07:20:47;;;;;;;6.45;4.22;;;;;;;20.28;46.04;99369.56;4897891;29;20044;-70
2022/09/21 07:23:16;;;;;;;7.90;3.30;;;;;;;20.29;46.11;99365.84;4897728;29;20043;-69
2022/09/21 07:25:43;;;;;;;8.23;3.30;;;;;;;20.28;46.04;99364.19;4898143;29;20399;-71
2022/09/21 07:28:10;;;;;;;10.02;3.28;;;;;;;20.32;46.08;99365.47;4896305;29;20188;-70
2022/09/21 07:30:37;;;;;;;7.18;3.90;;;;;;;20.37;45.76;99368.41;4896447;29;20092;-71
2022/09/21 07:33:03;;;;;;;8.50;4.90;;;;;;;20.39;45.76;99366.38;4897322;29;20039;-70
2022/09/21 07:35:28;;;;;;;6.18;2.97;;;;;;;20.41;45.60;99360.81;4897239;29;20043;-70
2022/09/21 07:43:05;;;;;;;8.43;3.47;;;;;;;20.44;45.71;99365.78;5719957;23;20051;-70
2022/09/21 07:45:30;;;;;;;5.22;3.83;;;;;;;20.43;45.59;99367.66;4936068;29;20035;-67
2022/09/21 07:48:03;;;;;;;6.68;3.58;;;;;;;20.41;45.59;99368.88;4928947;29;20055;-70
2022/09/21 07:50:28;;;;;;;7.88;3.78;;;;;;;20.41;45.59;99369.69;4928003;29;20527;-70
2022/09/21 07:52:54;;;;;;;6.35;3.90;;;;;;;20.42;45.71;99366.00;4916562;29;20115;-69
2022/09/21 07:55:19;;;;;;;5.00;3.08;;;;;;;20.44;45.73;99365.78;4916624;29;20040;-71
2022/09/21 08:00:34;;;;;;;5.55;3.00;;;;;;;20.65;45.65;99375.78;4898091;29;20068;-71
2022/09/21 08:03:00;;;;;;;5.25;3.92;;;;;;;20.75;45.46;99372.78;4897648;29;20044;-68
2022/09/21 08:05:26;;;;;;;4.88;3.13;;;;;;;20.83;45.53;99369.13;4897534;29;20044;-70
2022/09/21 08:07:54;;;;;;;6.63;3.83;;;;;;;20.89;45.24;99376.44;4897499;29;20404;-68
2022/09/21 08:10:20;;;;;;;8.93;3.75;;;;;;;20.91;45.08;99376.22;4897280;29;20477;-68
2022/09/21 08:12:45;;;;;;;5.82;4.40;;;;;;;20.92;45.05;99369.84;4897442;29;20041;-68
2022/09/21 08:15:11;;;;;;;6.80;3.47;;;;;;;20.92;44.92;99370.69;4897600;29;20444;-70
2022/09/21 08:17:37;;;;;;;8.68;4.13;;;;;;;20.96;44.97;99365.75;4897492;29;20488;-69
2022/09/21 08:20:03;;;;;;;7.90;5.20;;;;;;;20.98;44.99;99367.19;4897540;29;20476;-69
2022/09/21 08:22:28;;;;;;;7.65;3.95;;;;;;;20.99;44.89;99366.19;4897490;29;20143;-68
2022/09/21 08:24:54;;;;;;;7.15;4.20;;;;;;;21.00;44.81;99378.59;4897145;29;20036;-68
2022/09/21 08:27:20;;;;;;;8.88;4.57;;;;;;;21.01;44.96;99366.81;4911054;29;20048;-70
2022/09/21 08:29:45;;;;;;;6.63;3.70;;;;;;;21.03;44.91;99374.69;4916284;29;20399;-68
2022/09/21 08:32:11;;;;;;;7.50;3.42;;;;;;;21.03;44.83;99366.63;4916199;29;20031;-69
2022/09/21 08:34:36;;;;;;;7.50;3.58;;;;;;;21.02;44.90;99365.78;4916230;29;20040;-70
2022/09/21 08:37:03;;;;;;;8.20;3.40;;;;;;;21.04;44.96;99369.13;4915884;29;20039;-68
2022/09/21 08:39:28;;;;;;;6.03;3.10;;;;;;;21.06;45.16;99365.41;4915335;29;20043;-69
2022/09/21 08:42:06;;;;;;;5.05;3.17;;;;;;;21.10;45.06;99364.00;4916235;29;20056;-69
2022/09/21 08:44:36;;;;;;;6.47;4.05;;;;;;;21.10;44.99;99359.44;4919401;29;20050;-69
2022/09/21 08:47:15;;;;;;;7.38;3.47;;;;;;;21.12;44.79;99354.72;4919819;29;20036;-68
2022/09/21 08:49:55;;;;;;;9.00;4.30;;;;;;;21.10;44.77;99346.00;4918044;29;20063;-70
2022/09/21 08:52:23;;;;;;;4.93;3.65;;;;;;;21.11;44.72;99346.81;4938361;29;20035;-69
2022/09/21 08:55:17;;;;;;;8.50;4.32;;;;;;;21.12;44.60;99346.66;4919609;29;20459;-69
2022/09/21 08:57:43;;;;;;;7.18;3.92;;;;;;;21.04;44.73;99336.84;4930965;29;20079;-68
2022/09/21 09:00:17;;;;;;;8.48;3.33;;;;;;;21.03;44.72;99337.88;4918869;29;20083;-69
2022/09/21 09:03:01;;;;;;;4.45;3.00;;;;;;;21.06;44.72;99339.34;4918593;29;20040;-67
2022/09/21 09:05:47;;;;;;;4.60;2.55;;;;;;;21.11;44.74;99336.06;4915537;29;20035;-67
2022/09/21 09:08:35;;;;;;;6.55;3.13;;;;;;;21.16;44.60;99336.31;4917485;29;20039;-68
2022/09/21 09:11:23;;;;;;;6.95;3.22;;;;;;;21.16;44.50;99331.78;4917107;29;20036;-68
2022/09/21 09:14:09;;;;;;;4.82;2.90;;;;;;;21.16;44.47;99339.00;4910785;29;20042;-68
2022/09/21 09:16:51;;;;;;;5.25;2.63;;;;;;;21.15;44.24;99332.81;4918801;29;20404;-70
2022/09/21 09:19:31;;;;;;;5.40;2.35;;;;;;;21.15;44.39;99330.13;4917366;29;20051;-68
2022/09/21 09:21:56;;;;;;;2.95;2.10;;;;;;;21.21;44.25;99335.72;4918610;29;20075;-70
2022/09/21 09:24:38;;;;;;;9.05;3.35;;;;;;;21.27;44.06;99326.88;4918774;29;20063;-71
2022/09/21 09:27:29;;;;;;;5.22;2.53;;;;;;;21.31;44.27;99318.22;4918840;29;20193;-72
2022/09/21 09:30:18;;;;;;;5.28;2.53;;;;;;;21.37;43.81;99321.16;4918011;29;20031;-68
2022/09/21 09:33:02;;;;;;;4.88;2.15;;;;;;;21.39;43.98;99317.22;4918729;29;20042;-67
2022/09/21 09:35:32;;;;;;;4.85;2.90;;;;;;;21.44;43.85;99330.94;4918828;29;20036;-70
2022/09/21 09:38:22;;;;;;;5.32;2.83;;;;;;;21.48;43.82;99318.72;4918562;29;20071;-70
2022/09/21 09:40:56;;;;;;;6.80;2.05;;;;;;;21.48;43.77;99324.13;4918214;29;20119;-68
2022/09/21 09:43:39;;;;;;;3.20;2.10;;;;;;;21.50;43.76;99319.38;4918219;29;20415;-69
2022/09/21 09:46:33;;;;;;;5.72;2.65;;;;;;;21.51;43.74;99314.84;4917491;29;20052;-68
2022/09/21 09:49:23;;;;;;;7.75;3.22;;;;;;;21.49;43.49;99315.00;4915977;29;20163;-67
2022/09/21 09:51:49;;;;;;;4.05;2.90;;;;;;;21.49;43.34;99311.50;4917750;29;20036;-69
2022/09/21 09:54:17;;;;;;;4.35;2.72;;;;;;;21.47;43.30;99310.88;4916746;29;20063;-67
2022/09/21 09:56:43;;;;;;;3.75;2.75;;;;;;;21.40;43.07;99312.66;4922381;29;20032;-69
2022/09/21 09:59:38;;;;;;;6.75;3.10;;;;;;;21.41;43.20;99314.34;4916808;29;20088;-70
2022/09/21 10:02:23;;;;;;;6.93;2.85;;;;;;;21.41;43.08;99327.78;4910625;29;20044;-70
2022/09/21 10:05:02;;;;;;;4.38;2.35;;;;;;;21.42;42.94;99327.59;4917842;29;20032;-68
2022/09/21 10:07:38;;;;;;;7.22;3.60;;;;;;;21.43;42.92;99314.97;4911912;29;20064;-70
2022/09/21 10:10:28;;;;;;;6.90;3.38;;;;;;;21.47;42.77;99321.63;4918069;29;20408;-69
2022/09/21 10:13:50;;;;;;;8.25;3.05;;;;;;;21.42;42.67;99316.00;4916061;29;20045;-69
2022/09/21 10:16:21;;;;;;;6.03;3.47;;;;;;;21.44;42.98;99313.94;4915915;29;20072;-64
2022/09/21 10:18:51;;;;;;;;;;;;;;;21.45;43.19;99316.47;4917601;29;20122;-67
2022/09/21 10:21:23;;;;;;;10.65;3.45;;;;;;;21.54;43.12;99311.75;4916274;29;20550;-65
2022/09/21 10:24:01;;;;;;;6.82;3.30;;;;;;;21.63;43.26;99312.44;4916796;29;20047;-66
2022/09/21 10:26:44;;;;;;;7.32;3.70;;;;;;;21.69;43.37;99310.81;4916172;29;20047;-65
2022/09/21 10:29:22;;;;;;;6.72;3.17;;;;;;;21.73;43.17;99304.84;4916525;29;20080;-64
2022/09/21 10:32:06;;;;;;;6.28;3.10;;;;;;;21.76;43.45;99307.09;4916343;29;20063;-66
2022/09/21 10:34:33;;;;;;;9.70;3.13;;;;;;;21.79;43.76;99305.91;4916684;29;20107;-67
2022/09/21 10:37:02;;;;;;;8.50;3.25;;;;;;;21.83;43.78;99303.63;4916175;29;20040;-68
2022/09/21 10:39:31;;;;;;;9.75;3.15;;;;;;;21.87;43.84;99308.41;4915966;29;20416;-69
2022/09/21 10:42:13;;;;;;;7.22;3.22;;;;;;;21.90;43.76;99305.31;4917372;29;20059;-69
2022/09/21 10:44:46;;;;;;;5.90;3.20;;;;;;;21.92;43.43;99305.94;4916900;29;20052;-69
2022/09/21 10:47:29;;;;;;;6.30;2.92;;;;;;;21.89;42.92;99306.34;4898570;29;20047;-68
2022/09/21 10:49:59;;;;;;;11.82;2.60;;;;;;;21.84;42.86;99302.59;4898673;29;20040;-68
2022/09/21 10:52:33;;;;;;;8.07;2.97;;;;;;;21.78;42.68;99301.53;4900998;29;20055;-68
2022/09/21 10:54:59;;;;;;;6.13;2.42;;;;;;;21.78;43.23;99299.66;4917088;29;20118;-68
2022/09/21 10:57:27;;;;;;;7.38;2.97;;;;;;;21.79;42.94;99293.25;4917329;29;20115;-68
2022/09/21 10:59:53;;;;;;;4.43;2.78;;;;;;;21.78;42.67;99290.75;4916428;29;20057;-68
2022/09/21 11:02:30;;;;;;;3.83;2.58;;;;;;;21.76;42.35;99300.91;4917073;29;20508;-68
2022/09/21 11:04:58;;;;;;;6.30;2.33;;;;;;;21.72;42.34;99300.47;4916322;29;20399;-68
2022/09/21 11:07:24;;;;;;;4.60;1.95;;;;;;;21.69;42.22;99303.56;4917050;29;20040;-67
2022/09/21 11:10:14;;;;;;;6.43;2.22;;;;;;;21.70;42.29;99307.06;4916322;29;20036;-68
2022/09/21 11:13:03;;;;;;;5.63;2.30;;;;;;;21.74;42.48;99297.56;4935877;29;20122;-69
2022/09/21 11:15:56;;;;;;;8.32;2.70;;;;;;;21.80;42.27;99292.22;4936056;29;20495;-71
2022/09/21 11:18:58;;;;;;;3.30;1.75;;;;;;;21.84;42.36;99291.81;4923034;29;20043;-69
2022/09/21 11:21:49;;;;;;;5.32;2.60;;;;;;;21.84;42.25;99295.34;4923231;29;20367;-68
2022/09/21 11:24:33;;;;;;;4.20;2.40;;;;;;;21.86;42.26;99298.66;4920734;29;20036;-69
2022/09/21 11:27:27;;;;;;;5.22;2.22;;;;;;;21.92;42.52;99297.03;4916943;29;20407;-69
2022/09/21 11:30:02;;;;;;;4.32;2.55;;;;;;;21.95;42.19;99297.47;4916498;29;20048;-71
2022/09/21 11:32:39;;;;;;;5.07;2.10;;;;;;;21.97;42.24;99301.84;4916366;29;20510;-68
2022/09/21 11:35:28;;;;;;;3.28;2.40;;;;;;;21.98;42.26;99287.34;4917451;29;20401;-67
2022/09/21 11:38:19;;;;;;;7.18;2.25;;;;;;;22.00;42.21;99293.31;4916604;29;20028;-68
2022/09/21 11:41:01;;;;;;;2.80;2.30;;;;;;;22.02;42.46;99286.72;4917443;29;20039;-68
2022/09/21 11:43:48;;;;;;;8.18;2.70;;;;;;;22.01;42.58;99286.91;4915886;29;20071;-68
2022/09/21 11:46:41;;;;;;;4.50;2.25;;;;;;;22.03;42.80;99284.84;4916966;29;20434;-69
2022/09/21 11:49:21;;;;;;;4.20;2.85;;;;;;;22.04;42.24;99281.13;4915924;29;20399;-68
2022/09/21 11:52:20;;;;;;;6.13;2.85;;;;;;;22.05;42.29;99285.47;4916699;29;20099;-69
2022/09/21 11:55:16;;;;;;;6.40;2.63;;;;;;;21.97;42.63;99277.59;4865045;29;20070;-69
2022/09/21 11:57:51;;;;;;;7.38;2.40;;;;;;;21.98;42.79;99271.16;4919858;29;20064;-68
2022/09/21 12:00:20;;;;;;;3.97;2.10;;;;;;;22.00;42.84;99280.69;4911703;29;20043;-69
2022/09/21 12:03:17;;;;;;;6.25;2.50;;;;;;;22.05;43.14;99270.16;4916168;29;20556;-69
2022/09/21 12:06:03;;;;;;;6.35;2.70;;;;;;;22.08;42.91;99271.59;4935406;29;20036;-69
2022/09/21 12:08:47;;;;;;;4.00;2.22;;;;;;;22.07;43.06;99275.34;4915970;29;20104;-68